createdAt,value
2019-03-15T00:02:39.889Z,52.30
2019-03-15T00:05:32.764Z,52.30
2019-03-15T00:08:25.266Z,52.30
2019-03-15T00:11:17.494Z,52.20
2019-03-15T00:14:09.541Z,52.20
2019-03-15T00:17:01.839Z,52.20
2019-03-15T00:19:54.389Z,52.20
2019-03-15T00:22:46.482Z,52.20
2019-03-15T00:25:38.976Z,52.40
2019-03-15T00:28:31.385Z,52.20
2019-03-15T00:31:23.652Z,52.30
2019-03-15T00:34:16.604Z,52.20
2019-03-15T00:37:09.010Z,52.20
2019-03-15T00:40:01.498Z,52.30
2019-03-15T00:42:53.905Z,52.20
2019-03-15T00:45:47.209Z,52.20
2019-03-15T00:48:39.416Z,52.20
2019-03-15T00:51:31.943Z,52.40
2019-03-15T00:54:34.500Z,52.30
2019-03-15T00:57:26.801Z,52.40
2019-03-15T01:00:19.610Z,52.20
2019-03-15T01:03:12.504Z,52.20
2019-03-15T01:06:04.528Z,52.30
2019-03-15T01:08:56.845Z,52.20
2019-03-15T01:11:48.946Z,52.10
2019-03-15T01:14:41.334Z,52.20
2019-03-15T01:17:33.402Z,52.20
2019-03-15T01:20:25.996Z,52.30
2019-03-15T01:23:17.781Z,52.20
2019-03-15T01:26:10.515Z,52.30
2019-03-15T01:29:02.631Z,52.30
2019-03-15T01:31:54.487Z,52.20
2019-03-15T01:34:47.151Z,52.20
2019-03-15T01:37:39.355Z,52.20
2019-03-15T01:40:31.662Z,52.30
2019-03-15T01:43:24.315Z,52.20
2019-03-15T01:46:16.426Z,52.30
2019-03-15T01:49:12.367Z,52.20
2019-03-15T01:52:04.607Z,52.30
2019-03-15T01:54:58.135Z,52.30
2019-03-15T01:57:52.041Z,52.30
2019-03-15T02:00:44.601Z,52.40
2019-03-15T02:03:37.344Z,52.30
2019-03-15T02:06:29.877Z,52.30
2019-03-15T02:09:21.970Z,52.30
2019-03-15T02:12:14.271Z,52.30
2019-03-15T02:15:06.451Z,52.30
2019-03-15T02:17:58.621Z,52.30
2019-03-15T02:20:51.055Z,52.30
2019-03-15T02:23:43.359Z,52.30
2019-03-15T02:26:36.588Z,52.30
2019-03-15T02:29:29.008Z,52.40
2019-03-15T02:32:21.157Z,52.40
2019-03-15T02:35:14.029Z,52.40
2019-03-15T02:38:06.674Z,52.50
2019-03-15T02:41:00.177Z,52.40
2019-03-15T02:43:52.466Z,52.50
2019-03-15T02:46:45.995Z,52.40
2019-03-15T02:49:39.924Z,52.70
2019-03-15T02:52:32.486Z,52.50
2019-03-15T02:55:24.550Z,52.50
2019-03-15T02:58:16.934Z,52.50
2019-03-15T03:01:09.012Z,52.50
2019-03-15T03:04:01.255Z,52.50
2019-03-15T03:06:54.794Z,52.40
2019-03-15T03:09:46.824Z,53.20
2019-03-15T03:12:38.842Z,52.50
2019-03-15T03:15:31.285Z,52.50
2019-03-15T03:18:24.979Z,52.60
2019-03-15T03:21:17.414Z,52.60
2019-03-15T03:24:11.063Z,52.50
2019-03-15T03:27:03.637Z,52.50
2019-03-15T03:29:55.943Z,52.50
2019-03-15T03:32:48.322Z,52.50
2019-03-15T03:35:40.765Z,52.50
2019-03-15T03:38:33.295Z,52.50
2019-03-15T03:41:25.475Z,52.10
2019-03-15T03:44:17.727Z,52.60
2019-03-15T03:47:10.011Z,52.60
2019-03-15T03:50:02.004Z,52.60
2019-03-15T03:52:54.276Z,52.60
2019-03-15T03:55:46.724Z,52.80
2019-03-15T04:03:05.088Z,52.10
2019-03-15T04:06:03.589Z,52.70
2019-03-15T04:08:56.538Z,52.70
2019-03-15T04:11:55.319Z,52.70
2019-03-15T04:14:42.974Z,52.60
2019-03-15T04:17:35.591Z,52.70
2019-03-15T04:20:28.106Z,52.70
2019-03-15T04:23:20.605Z,52.70
2019-03-15T04:26:13.144Z,52.90
2019-03-15T04:29:05.557Z,52.80
2019-03-15T04:31:58.605Z,52.70
2019-03-15T04:34:50.842Z,52.70
2019-03-15T04:37:43.376Z,52.80
2019-03-15T04:40:36.516Z,52.90
2019-03-15T04:43:28.550Z,52.70
2019-03-15T04:46:20.618Z,52.90
2019-03-15T04:49:13.450Z,53.00
2019-03-15T04:52:07.987Z,52.50
2019-03-15T04:55:02.539Z,53.00
2019-03-15T04:57:55.401Z,57.20
2019-03-15T05:00:48.010Z,53.20
2019-03-15T05:03:40.545Z,53.40
2019-03-15T05:06:33.941Z,55.40
2019-03-15T05:09:27.028Z,59.30
2019-03-15T05:12:24.700Z,59.30
2019-03-15T05:15:20.767Z,59.20
2019-03-15T05:18:17.135Z,58.90
2019-03-15T05:21:18.655Z,58.20
2019-03-15T05:24:19.773Z,57.70
2019-03-15T05:27:15.822Z,56.70
2019-03-15T05:30:19.252Z,55.80
2019-03-15T05:35:43.645Z,52.90
2019-03-15T05:38:36.448Z,55.10
2019-03-15T05:58:51.778Z,50.40
2019-03-15T06:01:46.305Z,51.20
2019-03-15T06:07:31.343Z,52.40
2019-03-15T06:10:24.931Z,52.60
2019-03-15T06:27:33.419Z,53.70
2019-03-15T06:30:26.591Z,53.70
2019-03-15T06:39:00.579Z,53.80
2019-03-15T06:41:53.709Z,53.70
2019-03-15T06:44:57.286Z,53.70
2019-03-15T06:53:28.440Z,52.30
2019-03-15T07:02:08.401Z,52.60
2019-03-15T07:07:52.110Z,52.50
2019-03-15T07:19:27.580Z,53.30
2019-03-15T07:25:12.904Z,52.90
2019-03-15T07:56:49.202Z,51.90
2019-03-15T08:28:23.239Z,59.30
2019-03-15T08:34:21.831Z,60.60
2019-03-15T09:17:20.161Z,55.60
2019-03-15T10:17:47.597Z,68.20
2019-03-15T10:29:35.564Z,70.20
2019-03-15T10:52:30.574Z,42.60
2019-03-15T10:55:24.145Z,43.70
2019-03-15T10:58:18.554Z,43.40
2019-03-15T11:01:11.868Z,43.70
2019-03-15T11:04:04.969Z,44.30
2019-03-15T11:07:00.266Z,44.40
2019-03-15T11:09:52.477Z,44.50
2019-03-15T11:12:46.758Z,44.70
2019-03-15T11:18:18.179Z,44.60
2019-03-15T11:21:10.820Z,45.00
2019-03-15T11:24:06.444Z,45.30
2019-03-15T11:27:01.151Z,45.30
2019-03-15T11:29:55.819Z,45.20
2019-03-15T11:32:48.267Z,45.30
2019-03-15T11:35:43.957Z,45.70
2019-03-15T11:38:36.762Z,45.70
2019-03-15T11:41:30.273Z,45.70
2019-03-15T11:44:23.920Z,46.00
2019-03-15T11:50:23.064Z,45.30
2019-03-15T11:53:18.810Z,46.10
2019-03-15T11:56:10.429Z,45.80
2019-03-15T11:59:03.258Z,45.30
2019-03-15T12:02:03.851Z,45.00
2019-03-15T12:04:49.277Z,44.80
2019-03-15T12:07:42.237Z,45.20
2019-03-15T12:10:36.524Z,45.50
2019-03-15T12:13:30.240Z,45.60
2019-03-15T12:16:24.771Z,45.70
2019-03-15T12:19:17.382Z,45.80
2019-03-15T12:22:18.230Z,45.80
2019-03-15T12:25:11.000Z,46.30
2019-03-15T12:28:04.721Z,47.10
2019-03-15T12:30:58.873Z,47.50
2019-03-15T12:33:53.242Z,47.60
2019-03-15T12:36:51.361Z,47.60
2019-03-15T12:39:46.239Z,47.70
2019-03-15T12:42:43.646Z,47.40
2019-03-15T12:45:44.538Z,47.30
2019-03-15T12:48:40.098Z,47.80
2019-03-15T12:51:34.550Z,48.20
2019-03-15T12:54:27.562Z,48.70
2019-03-15T12:57:20.673Z,49.00
2019-03-15T13:00:14.214Z,49.50
2019-03-15T13:03:07.040Z,50.60
2019-03-15T13:06:02.096Z,51.40
2019-03-15T13:08:59.056Z,51.90
2019-03-15T13:11:52.657Z,52.50
2019-03-15T13:14:46.212Z,53.90
2019-03-15T13:17:43.412Z,53.40
2019-03-15T13:20:35.609Z,53.20
2019-03-15T13:23:28.109Z,53.00
2019-03-15T13:26:20.357Z,52.90
2019-03-15T13:29:12.635Z,52.60
2019-03-15T13:32:04.852Z,52.50
2019-03-15T13:34:57.697Z,46.70
2019-03-15T13:37:49.969Z,43.70
2019-03-15T13:40:42.412Z,45.30
2019-03-15T13:43:35.099Z,46.20
2019-03-15T13:46:28.078Z,46.10
2019-03-15T13:49:20.747Z,46.20
2019-03-15T13:52:13.476Z,46.30
2019-03-15T13:55:05.829Z,46.40
2019-03-15T13:57:58.241Z,46.50
2019-03-15T14:00:50.531Z,46.60
2019-03-15T14:03:43.863Z,46.70
2019-03-15T14:06:36.141Z,46.70
2019-03-15T14:09:28.374Z,46.80
2019-03-15T14:12:20.638Z,46.90
2019-03-15T14:15:14.587Z,46.90
2019-03-15T14:18:08.109Z,47.00
2019-03-15T14:21:01.139Z,47.30
2019-03-15T14:23:53.613Z,47.20
2019-03-15T14:26:46.499Z,47.30
2019-03-15T14:29:39.283Z,47.40
2019-03-15T14:32:32.939Z,47.40
2019-03-15T14:35:26.159Z,47.50
2019-03-15T14:38:19.539Z,47.50
2019-03-15T14:41:12.468Z,47.50
2019-03-15T14:44:05.129Z,47.50
2019-03-15T14:46:58.953Z,47.60
2019-03-15T14:49:51.827Z,47.70
2019-03-15T14:52:45.186Z,47.80
2019-03-15T14:55:37.707Z,47.80
2019-03-15T14:58:30.728Z,47.90
2019-03-15T15:01:25.116Z,48.00
2019-03-15T15:04:17.759Z,48.00
2019-03-15T15:07:10.912Z,48.10
2019-03-15T15:10:04.114Z,48.10
2019-03-15T15:12:57.784Z,48.20
2019-03-15T15:15:50.550Z,48.20
2019-03-15T15:18:44.976Z,48.20
2019-03-15T15:21:37.819Z,48.20
2019-03-15T15:24:30.986Z,48.00
2019-03-15T15:27:25.635Z,48.00
2019-03-15T15:30:19.382Z,48.00
2019-03-15T15:33:14.484Z,48.00
2019-03-15T15:36:12.663Z,48.00
2019-03-15T15:39:05.568Z,48.20
2019-03-15T15:41:58.894Z,48.20
2019-03-15T15:44:51.757Z,48.10
2019-03-15T15:47:44.826Z,48.20
2019-03-15T15:50:38.103Z,48.20
2019-03-15T15:53:32.907Z,48.30
2019-03-15T15:56:25.602Z,48.30
2019-03-15T15:59:18.470Z,48.30
2019-03-15T16:02:11.465Z,48.30
2019-03-15T16:05:04.578Z,48.30
2019-03-15T16:07:57.253Z,48.40
2019-03-15T16:10:50.128Z,48.40
2019-03-15T16:13:43.285Z,48.50
2019-03-15T16:16:36.587Z,48.50
2019-03-15T16:19:29.605Z,48.50
2019-03-15T16:22:22.699Z,48.50
2019-03-15T16:25:27.851Z,48.50
2019-03-15T16:28:30.952Z,48.50
2019-03-15T16:31:15.816Z,48.50
2019-03-15T16:34:09.263Z,48.50
2019-03-15T16:37:03.170Z,48.50
2019-03-15T16:39:56.542Z,48.60
2019-03-15T16:42:49.956Z,48.50
2019-03-15T16:45:43.253Z,48.60
2019-03-15T16:48:36.302Z,48.60
2019-03-15T16:51:29.029Z,48.60
2019-03-15T16:54:22.554Z,48.60
2019-03-15T16:57:16.834Z,48.70
2019-03-15T17:00:11.271Z,48.80
2019-03-15T17:03:05.470Z,48.70
2019-03-15T17:05:59.211Z,48.80
2019-03-15T17:08:52.549Z,48.70
2019-03-15T17:11:48.468Z,48.80
2019-03-15T17:14:42.761Z,49.40
2019-03-15T17:17:36.347Z,48.90
2019-03-15T17:20:29.605Z,48.90
2019-03-15T17:23:23.714Z,48.90
2019-03-15T17:26:18.249Z,48.90
2019-03-15T17:29:11.061Z,49.00
2019-03-15T17:32:04.992Z,48.90
2019-03-15T17:34:57.952Z,49.00
2019-03-15T17:37:51.279Z,49.00
2019-03-15T17:40:43.758Z,49.00
2019-03-15T17:43:36.468Z,49.00
2019-03-15T17:46:29.497Z,49.00
2019-03-15T17:49:22.578Z,49.00
2019-03-15T17:52:15.711Z,49.10
2019-03-15T17:55:09.642Z,49.00
2019-03-15T17:58:02.398Z,49.00
2019-03-15T18:00:55.358Z,49.00
2019-03-15T18:03:48.671Z,49.10
2019-03-15T18:06:42.474Z,49.00
2019-03-15T18:09:36.092Z,49.10
2019-03-15T18:12:29.592Z,49.30
2019-03-15T18:15:22.631Z,49.00
2019-03-15T18:18:15.790Z,49.00
2019-03-15T18:21:09.474Z,49.00
2019-03-15T18:24:02.028Z,49.10
2019-03-15T18:26:54.798Z,49.00
2019-03-15T18:29:47.115Z,49.00
2019-03-15T18:32:39.585Z,49.10
2019-03-15T18:35:34.216Z,49.10
2019-03-15T18:38:26.807Z,48.90
2019-03-15T18:41:19.565Z,48.90
2019-03-15T18:44:11.665Z,48.90
2019-03-15T18:47:04.115Z,49.00
2019-03-15T18:49:56.763Z,48.90
2019-03-15T18:52:49.344Z,48.80
2019-03-15T18:55:41.886Z,48.80
2019-03-15T18:58:34.735Z,49.00
2019-03-15T19:01:26.880Z,49.00
2019-03-15T19:04:19.231Z,49.00
2019-03-15T19:07:11.267Z,49.00
2019-03-15T19:10:04.653Z,49.00
2019-03-15T19:12:57.123Z,49.00
2019-03-15T19:15:49.997Z,49.00
2019-03-15T19:18:42.195Z,49.00
2019-03-15T19:21:35.168Z,49.10
2019-03-15T19:24:27.699Z,49.10
2019-03-15T19:27:21.050Z,49.20
2019-03-15T19:30:14.500Z,49.10
2019-03-15T19:33:07.289Z,49.20
2019-03-15T19:35:59.683Z,49.20
2019-03-15T19:38:52.673Z,49.30
2019-03-15T19:41:45.065Z,49.30
2019-03-15T19:44:37.410Z,49.30
2019-03-15T19:47:29.875Z,49.30
2019-03-15T19:50:22.757Z,49.20
2019-03-15T19:53:15.082Z,49.20
2019-03-15T19:56:07.933Z,49.40
2019-03-15T19:59:00.275Z,49.40
2019-03-15T20:01:53.662Z,49.30
2019-03-15T20:04:47.374Z,49.30
2019-03-15T20:07:40.306Z,49.30
2019-03-15T20:10:32.737Z,49.30
2019-03-15T20:13:25.064Z,49.30
2019-03-15T20:16:17.597Z,49.20
2019-03-15T20:19:10.170Z,49.20
2019-03-15T20:22:02.157Z,49.30
2019-03-15T20:24:55.008Z,49.30
2019-03-15T20:27:47.590Z,49.30
2019-03-15T20:30:51.421Z,49.30
2019-03-15T20:33:34.193Z,49.30
2019-03-15T20:36:26.854Z,49.50
2019-03-15T20:39:19.290Z,49.40
2019-03-15T20:42:11.658Z,49.30
2019-03-15T20:45:05.193Z,49.30
2019-03-15T20:47:58.175Z,49.30
2019-03-15T20:50:50.971Z,49.50
2019-03-15T20:53:44.523Z,49.50
2019-03-15T20:56:37.208Z,49.50
2019-03-15T20:59:29.462Z,49.40
2019-03-15T21:02:22.045Z,49.50
2019-03-15T21:05:14.309Z,49.50
2019-03-15T21:08:06.717Z,49.50
2019-03-15T21:10:58.994Z,49.50
2019-03-15T21:13:51.385Z,49.50
2019-03-15T21:16:43.411Z,49.50
2019-03-15T21:19:35.874Z,49.60
2019-03-15T21:22:28.153Z,49.50
2019-03-15T21:25:20.365Z,49.50
2019-03-15T21:28:12.867Z,49.50
2019-03-15T21:31:05.147Z,49.50
2019-03-15T21:33:57.634Z,49.50
2019-03-15T21:36:49.830Z,49.60
2019-03-15T21:39:42.231Z,49.60
2019-03-15T21:42:35.655Z,49.60
2019-03-15T21:45:27.904Z,49.60
2019-03-15T21:48:20.279Z,49.70
2019-03-15T21:51:12.931Z,49.70
2019-03-15T21:54:05.086Z,49.70
2019-03-15T21:56:57.660Z,49.70
2019-03-15T21:59:49.842Z,49.70
2019-03-15T22:02:42.565Z,49.70
2019-03-15T22:05:34.866Z,49.70
2019-03-15T22:08:27.547Z,49.70
2019-03-15T22:11:21.360Z,49.70
2019-03-15T22:14:14.187Z,49.80
2019-03-15T22:17:06.413Z,49.70
2019-03-15T22:19:58.309Z,49.70
2019-03-15T22:22:50.404Z,49.80
2019-03-15T22:25:42.929Z,49.80
2019-03-15T22:28:35.117Z,49.80
2019-03-15T22:31:27.539Z,49.80
2019-03-15T22:34:19.610Z,49.70
2019-03-15T22:37:12.406Z,49.70
2019-03-15T22:40:04.671Z,49.60
2019-03-15T22:42:57.359Z,49.70
2019-03-15T22:45:49.738Z,49.70
2019-03-15T22:48:42.178Z,49.80
2019-03-15T22:51:34.339Z,49.80
2019-03-15T22:54:26.548Z,49.70
2019-03-15T22:57:19.589Z,49.60
2019-03-15T23:00:14.374Z,49.60
2019-03-15T23:03:08.493Z,49.60
2019-03-15T23:06:00.986Z,49.80
2019-03-15T23:08:53.395Z,49.70
2019-03-15T23:11:45.692Z,49.90
2019-03-15T23:14:37.979Z,50.00
2019-03-15T23:17:30.457Z,49.90
2019-03-15T23:20:23.030Z,49.90
2019-03-15T23:23:23.970Z,49.90
2019-03-15T23:26:09.187Z,50.50
2019-03-15T23:29:01.660Z,49.80
2019-03-15T23:31:54.204Z,49.90
2019-03-15T23:34:46.615Z,49.80
2019-03-15T23:37:38.756Z,49.80
2019-03-15T23:40:31.427Z,49.90
2019-03-15T23:43:23.459Z,49.90
2019-03-15T23:46:15.902Z,49.90
2019-03-15T23:49:08.174Z,49.90
2019-03-15T23:52:00.138Z,49.90
2019-03-15T23:54:52.754Z,49.90
2019-03-15T23:57:45.540Z,49.90
